Eastfork, Mississippi
Current Conditions -  °F | °C
As of 12:53 PM on Saturday 20 Dec 2014 (Local Time) from KMCB Reporting Station
Overcast Overcast  
Wind Chill: 44°   Ceiling: 600
Heat Index: 48°   Visibility: 10mi
Dew Point: 44°   Wind: 8mph
Humidity: 86%   Direction: 10°N
Pressure: 30.15"   Gusts: NA
Location:  31.3682°N, 90.6714°W
Report Text: KMCB 201853Z AUTO 01007KT 10SM OVC006 09/07 A3015 RMK AO2 SLP209 T00890067
Loading
Personal Weather Stations






























Interactive Weather Map New forecast layout! Learn more

10-Day Weather Forecast

Advertisements
Track Severe Weather on mobile